Time;durP1;ratioP1;P1;durP2;ratioP2;P2;SDS_P1;SDS_P2;PMS_P1;PMS_P2;Temp;Humidity;BMP_temperature;BMP_pressure;BME280_temperature;BME280_humidity;BME280_pressure;Samples;Min_cycle;Max_cycle;Signal;HPM_P1;HPM_P2
2022/02/01 00:02:30;;;;;;;54.53;48.92;;;;;;;-1.18;100.00;100145.44;5049973;28;20064;-85
2022/02/01 00:05:05;;;;;;;52.67;48.22;;;;;;;-1.26;100.00;100150.56;5044125;28;20074;-84
2022/02/01 00:07:42;;;;;;;50.95;46.58;;;;;;;-1.14;100.00;100146.81;5049440;28;20053;-85
2022/02/01 00:10:16;;;;;;;48.78;44.65;;;;;;;-1.36;100.00;100140.19;5045507;28;20638;-85
2022/02/01 00:12:52;;;;;;;52.55;47.35;;;;;;;-1.17;100.00;100131.44;5053999;28;20473;-84
2022/02/01 00:18:22;;;;;;;48.03;44.00;;;;;;;-1.31;100.00;100142.34;5044708;28;20107;-85
2022/02/01 00:34:49;;;;;;;47.22;42.75;;;;;;;-1.22;100.00;100144.09;5057107;28;20048;-85
2022/02/01 00:37:20;;;;;;;50.90;46.85;;;;;;;-1.29;100.00;100133.41;5048390;28;20063;-85
2022/02/01 00:39:55;;;;;;;50.38;46.42;;;;;;;-1.55;100.00;100141.03;5057522;28;20432;-85
2022/02/01 00:42:22;;;;;;;43.50;39.88;;;;;;;-1.70;100.00;100126.81;5050173;28;20052;-84
2022/02/01 00:44:49;;;;;;;45.95;42.30;;;;;;;-1.96;100.00;100129.22;5050695;28;20060;-85
2022/02/01 00:47:16;;;;;;;51.65;47.65;;;;;;;-1.61;100.00;100131.19;5046928;28;20053;-85
2022/02/01 00:49:47;;;;;;;52.28;47.95;;;;;;;-1.36;100.00;100134.97;5046235;28;20044;-84
2022/02/01 00:52:14;;;;;;;67.22;55.90;;;;;;;-1.14;100.00;100127.75;5058566;28;20477;-85
2022/02/01 00:54:44;;;;;;;63.08;56.33;;;;;;;-0.95;100.00;100132.84;5040116;28;20049;-85
2022/02/01 00:57:13;;;;;;;55.08;49.60;;;;;;;-1.15;100.00;100121.69;5048102;28;20045;-84
2022/02/01 00:59:42;;;;;;;50.70;45.40;;;;;;;-1.70;100.00;100126.81;5042318;28;20554;-85
2022/02/01 01:02:11;;;;;;;51.13;46.53;;;;;;;-1.43;100.00;100121.66;5053576;28;20503;-85
2022/02/01 01:04:38;;;;;;;54.97;49.47;;;;;;;-1.19;100.00;100122.94;5044737;28;20049;-85
2022/02/01 01:07:09;;;;;;;54.55;48.95;;;;;;;-1.03;100.00;100123.16;5051311;28;20049;-85
2022/02/01 01:09:37;;;;;;;54.08;48.65;;;;;;;-1.14;100.00;100118.13;5040157;28;20041;-87
2022/02/01 01:12:04;;;;;;;56.67;51.25;;;;;;;-1.24;100.00;100112.13;5052236;28;20079;-85
2022/02/01 01:14:55;;;;;;;54.33;48.83;;;;;;;-1.25;100.00;100123.53;5047021;28;20050;-84
2022/02/01 01:45:16;;;;;;;53.13;47.78;;;;;;;-0.98;100.00;100094.03;5064083;28;20056;-85
2022/02/01 01:53:20;;;;;;;54.20;49.13;;;;;;;-0.91;100.00;100079.44;5050322;28;20048;-85
2022/02/01 01:55:52;;;;;;;66.43;54.85;;;;;;;-1.19;100.00;100079.47;5056512;28;20049;-85
2022/02/01 01:58:20;;;;;;;59.25;49.72;;;;;;;-1.05;100.00;100072.94;5060562;28;20049;-85
2022/02/01 02:03:37;;;;;;;52.08;46.65;;;;;;;-0.85;100.00;100075.41;5052857;28;20066;-87
2022/02/01 02:06:04;;;;;;;50.22;44.97;;;;;;;-0.86;100.00;100069.38;5052829;28;20050;-85
2022/02/01 02:08:33;;;;;;;50.83;45.45;;;;;;;-0.79;100.00;100067.00;5053192;28;20049;-85
2022/02/01 02:11:04;;;;;;;51.47;46.92;;;;;;;-0.85;100.00;100065.81;5053537;28;20049;-85
2022/02/01 02:16:19;;;;;;;47.80;43.33;;;;;;;-0.88;100.00;100071.31;5054328;28;20060;-85
2022/02/01 02:18:47;;;;;;;55.08;49.70;;;;;;;-0.76;100.00;100070.13;5056474;28;20045;-86
2022/02/01 02:21:18;;;;;;;54.15;48.78;;;;;;;-1.14;100.00;100068.63;5052017;28;20432;-86
2022/02/01 02:23:46;;;;;;;60.70;48.57;;;;;;;-1.31;100.00;100069.38;5061460;28;20061;-86
2022/02/01 02:26:14;;;;;;;54.17;47.90;;;;;;;-1.30;100.00;100071.84;5049373;28;20041;-85
2022/02/01 02:28:42;;;;;;;53.67;48.55;;;;;;;-1.14;100.00;100068.63;5055943;28;20052;-85
2022/02/01 02:31:09;;;;;;;53.63;48.17;;;;;;;-1.04;100.00;100071.97;5054883;28;20060;-85
2022/02/01 02:33:38;;;;;;;47.97;44.10;;;;;;;-1.11;100.00;100064.91;5062139;28;20452;-85
2022/02/01 02:36:12;;;;;;;51.47;46.30;;;;;;;-0.87;100.00;100064.34;5056414;28;20105;-86
2022/02/01 02:38:51;;;;;;;54.97;49.63;;;;;;;-0.87;100.00;100062.53;5057216;28;20065;-85
2022/02/01 02:41:30;;;;;;;52.67;47.22;;;;;;;-0.80;100.00;100066.19;5058585;28;20048;-85
2022/02/01 02:46:46;;;;;;;57.80;45.25;;;;;;;-0.71;100.00;100072.31;5058121;28;20063;-85
2022/02/01 02:49:15;;;;;;;51.83;46.38;;;;;;;-0.90;100.00;100073.28;5044837;28;20080;-85
2022/02/01 02:51:45;;;;;;;50.60;45.78;;;;;;;-1.22;100.00;100061.50;5053785;28;20114;-85
2022/02/01 02:54:15;;;;;;;48.15;43.58;;;;;;;-1.35;100.00;100068.03;5063320;28;20140;-84
2022/02/01 02:56:46;;;;;;;51.75;47.22;;;;;;;-1.24;100.00;100067.81;5054227;28;20390;-86
2022/02/01 02:59:15;;;;;;;153.10;96.15;;;;;;;-1.36;100.00;100067.22;5051781;28;20045;-85
2022/02/01 03:01:43;;;;;;;151.48;105.82;;;;;;;-1.29;100.00;100059.66;5163039;22;20052;-85
2022/02/01 03:04:10;;;;;;;104.18;84.35;;;;;;;-1.44;100.00;100062.72;5060245;28;20048;-84
2022/02/01 03:06:39;;;;;;;88.22;73.13;;;;;;;-1.36;100.00;100056.81;5061264;28;20049;-85
2022/02/01 03:09:05;;;;;;;61.38;54.72;;;;;;;-1.45;100.00;100058.50;5046787;28;20049;-84
2022/02/01 03:11:44;;;;;;;63.13;57.40;;;;;;;-1.43;100.00;100050.50;5062347;28;20492;-86
2022/02/01 03:14:22;;;;;;;53.65;48.38;;;;;;;-1.28;100.00;100053.47;5048258;28;20041;-85
2022/02/01 03:19:48;;;;;;;64.07;57.33;;;;;;;-1.49;100.00;100046.69;5059258;28;20083;-85
2022/02/01 03:22:16;;;;;;;70.03;62.33;;;;;;;-1.76;100.00;100033.66;5063794;28;20045;-85
2022/02/01 03:24:44;;;;;;;69.80;62.10;;;;;;;-1.57;100.00;100036.19;5066681;28;20052;-85
2022/02/01 03:27:13;;;;;;;63.50;53.88;;;;;;;-1.47;100.00;100038.75;5062045;28;20052;-85
2022/02/01 03:29:40;;;;;;;51.78;47.28;;;;;;;-1.32;100.00;100033.88;5065391;28;20080;-84
2022/02/01 03:32:09;;;;;;;53.33;48.30;;;;;;;-1.38;100.00;100030.88;5064913;28;20416;-85
2022/02/01 03:34:36;;;;;;;46.92;43.40;;;;;;;-1.54;100.00;100033.31;5059279;28;20067;-85
2022/02/01 03:37:03;;;;;;;46.10;42.47;;;;;;;-1.37;100.00;100026.50;5059560;28;20048;-84
2022/02/01 03:39:30;;;;;;;49.42;44.83;;;;;;;-1.38;100.00;100020.47;5061055;28;20530;-85
2022/02/01 03:42:05;;;;;;;46.20;42.78;;;;;;;-1.13;100.00;100030.34;5068641;28;20370;-85
2022/02/01 03:44:33;;;;;;;53.75;49.22;;;;;;;-1.57;100.00;100024.94;5061920;28;20110;-85
2022/02/01 03:47:03;;;;;;;47.45;43.83;;;;;;;-1.33;100.00;100021.78;5062025;28;20037;-84
2022/02/01 03:49:34;;;;;;;47.63;43.65;;;;;;;-1.21;100.00;100020.63;5062059;28;20044;-85
2022/02/01 03:52:02;;;;;;;46.40;43.13;;;;;;;-1.18;100.00;100017.72;5057225;28;20448;-85
2022/02/01 03:54:31;;;;;;;51.88;47.45;;;;;;;-1.12;100.00;100019.78;5062473;28;20060;-84
2022/02/01 03:56:59;;;;;;;47.28;43.42;;;;;;;-1.02;100.00;100011.88;5059618;28;20057;-85
2022/02/01 03:59:26;;;;;;;47.65;44.17;;;;;;;-1.32;100.00;100023.47;5060398;28;20049;-84
2022/02/01 04:01:58;;;;;;;46.63;42.85;;;;;;;-1.36;100.00;100017.72;5056435;28;20122;-84
2022/02/01 04:04:29;;;;;;;46.58;42.78;;;;;;;-1.31;100.00;100023.28;5064881;28;20045;-85
2022/02/01 04:06:56;;;;;;;42.78;39.78;;;;;;;-1.47;100.00;100018.72;5059587;28;20122;-84
2022/02/01 04:09:24;;;;;;;46.10;42.58;;;;;;;-1.29;100.00;100016.16;5060074;28;20065;-85
2022/02/01 04:11:52;;;;;;;46.25;42.45;;;;;;;-1.19;100.00;100008.28;5060525;28;20060;-85
2022/02/01 04:14:22;;;;;;;45.45;41.40;;;;;;;-1.35;100.00;100016.75;5061824;28;20089;-87
2022/02/01 04:16:51;;;;;;;47.78;44.33;;;;;;;-1.29;100.00;100020.56;5060729;28;20060;-85
2022/02/01 04:19:20;;;;;;;48.65;44.78;;;;;;;-1.39;100.00;100026.66;5059298;28;20112;-84
2022/02/01 04:21:55;;;;;;;49.53;45.20;;;;;;;-1.23;100.00;100022.59;5064398;28;20056;-85
2022/02/01 04:24:23;;;;;;;49.40;45.28;;;;;;;-1.01;100.00;100031.75;5061800;28;20080;-85
2022/02/01 04:26:50;;;;;;;54.72;50.15;;;;;;;-1.00;100.00;100022.97;5058309;28;20217;-85
2022/02/01 04:29:17;;;;;;;51.88;47.47;;;;;;;-1.08;100.00;100033.31;5059155;28;20057;-85
2022/02/01 04:31:44;;;;;;;50.20;46.22;;;;;;;-1.16;100.00;100039.25;5062150;28;20052;-85
2022/02/01 04:34:11;;;;;;;49.78;45.72;;;;;;;-1.26;100.00;100041.94;5058544;28;20079;-85
2022/02/01 04:36:39;;;;;;;48.45;43.97;;;;;;;-1.33;100.00;100042.63;5064882;28;20098;-85
2022/02/01 04:39:13;;;;;;;48.28;44.13;;;;;;;-1.09;100.00;100042.94;5062030;28;20067;-84
2022/02/01 04:41:41;;;;;;;49.35;45.55;;;;;;;-0.80;100.00;100052.34;5064234;28;20075;-84
2022/02/01 04:44:18;;;;;;;48.53;44.78;;;;;;;-1.07;100.00;100046.19;5055782;28;20056;-85
2022/02/01 04:46:47;;;;;;;50.00;45.97;;;;;;;-1.06;100.00;100044.41;5066444;28;20044;-85
2022/02/01 04:49:14;;;;;;;46.72;43.13;;;;;;;-1.17;100.00;100050.66;5069119;28;20393;-85
2022/02/01 04:51:43;;;;;;;45.78;42.22;;;;;;;-0.96;100.00;100048.59;5068729;28;20044;-84
2022/02/01 04:54:16;;;;;;;50.25;45.75;;;;;;;-1.27;100.00;100044.66;5064242;28;20053;-84
2022/02/01 04:56:43;;;;;;;51.08;46.58;;;;;;;-1.23;100.00;100031.22;5064541;28;20045;-85
2022/02/01 04:59:11;;;;;;;49.17;45.05;;;;;;;-1.56;100.00;100031.81;5067404;28;20049;-85
2022/02/01 05:01:38;;;;;;;50.75;46.20;;;;;;;-1.39;100.00;100037.06;5067367;28;20056;-84
2022/02/01 05:04:06;;;;;;;58.45;52.90;;;;;;;-1.20;100.00;100028.31;5072344;28;20053;-84
2022/02/01 05:06:39;;;;;;;52.65;47.30;;;;;;;-1.20;100.00;100027.50;5066631;28;20029;-84
2022/02/01 05:09:09;;;;;;;50.95;46.05;;;;;;;-1.26;100.00;100026.28;5066868;28;20052;-85
2022/02/01 05:11:36;;;;;;;57.20;51.22;;;;;;;-1.40;100.00;100021.56;5055437;28;20041;-85
2022/02/01 05:14:11;;;;;;;56.08;50.30;;;;;;;-1.49;100.00;100028.47;5057952;28;20045;-84
2022/02/01 05:16:57;;;;;;;50.92;45.78;;;;;;;-1.40;100.00;100031.97;5051363;28;20088;-85
2022/02/01 05:19:47;;;;;;;53.25;48.30;;;;;;;-1.16;100.00;100024.44;5014467;28;20057;-84
2022/02/01 05:22:18;;;;;;;52.97;47.90;;;;;;;-1.50;100.00;100023.41;5050530;28;20119;-85
2022/02/01 05:24:53;;;;;;;47.72;43.88;;;;;;;-1.30;100.00;100017.13;5055769;28;20049;-84
2022/02/01 05:27:21;;;;;;;53.05;48.15;;;;;;;-1.35;100.00;100028.97;5056882;28;20055;-84
2022/02/01 05:29:48;;;;;;;60.90;55.38;;;;;;;-1.41;100.00;100028.56;5055202;28;20068;-84
2022/02/01 05:34:59;;;;;;;62.17;56.53;;;;;;;-1.77;100.00;100034.63;5051617;28;20111;-85
2022/02/01 05:37:26;;;;;;;57.13;52.33;;;;;;;-1.69;100.00;100030.34;5059207;28;20049;-85
2022/02/01 05:39:57;;;;;;;55.30;50.55;;;;;;;-1.35;100.00;100026.34;5055584;28;20065;-84
2022/02/01 05:42:35;;;;;;;55.10;49.38;;;;;;;-1.43;100.00;100040.91;5059780;28;20052;-85
2022/02/01 05:45:02;;;;;;;46.15;42.67;;;;;;;-1.57;100.00;100043.16;5061173;28;20041;-85
2022/02/01 05:47:31;;;;;;;50.80;46.20;;;;;;;-1.52;100.00;100046.16;5055777;28;20474;-85
2022/02/01 05:49:57;;;;;;;54.42;48.72;;;;;;;-1.31;100.00;100051.97;5067491;28;20049;-84
2022/02/01 05:52:30;;;;;;;47.40;43.08;;;;;;;-1.50;100.00;100054.66;5066300;28;20048;-86
2022/02/01 05:55:00;;;;;;;93.45;58.53;;;;;;;-1.68;100.00;100052.00;5061076;28;20052;-85
2022/02/01 05:57:29;;;;;;;80.93;52.72;;;;;;;-1.52;100.00;100057.41;5064418;28;20041;-85
2022/02/01 05:59:56;;;;;;;60.15;53.17;;;;;;;-1.37;100.00;100065.56;5069784;28;20056;-86
2022/02/01 06:02:22;;;;;;;75.70;54.33;;;;;;;-1.24;100.00;100075.66;5064074;28;20512;-85
2022/02/01 06:04:58;;;;;;;73.63;54.22;;;;;;;1.32;100.00;100076.19;5056854;28;20416;-84
2022/02/01 06:07:25;;;;;;;70.10;56.75;;;;;;;3.84;100.00;100080.72;5043462;28;20092;-83
2022/02/01 06:09:51;;;;;;;103.82;72.63;;;;;;;0.47;100.00;100075.44;5049179;28;20122;-81
2022/02/01 06:12:20;;;;;;;129.80;80.00;;;;;;;-1.34;100.00;100083.50;5044562;28;20307;-81
2022/02/01 06:14:46;;;;;;;96.88;68.90;;;;;;;-1.29;100.00;100077.88;5047514;28;20111;-81
2022/02/01 06:17:13;;;;;;;70.93;59.53;;;;;;;-1.28;100.00;100085.53;5049939;28;20041;-80
2022/02/01 06:19:40;;;;;;;73.90;55.17;;;;;;;-1.36;100.00;100090.66;5048908;28;20114;-79
2022/02/01 06:22:07;;;;;;;83.03;60.47;;;;;;;-1.14;100.00;100099.06;5045184;28;20111;-80
2022/02/01 06:24:34;;;;;;;71.07;55.75;;;;;;;-0.79;100.00;100100.91;5037636;28;20405;-79
2022/02/01 06:27:01;;;;;;;48.00;44.20;;;;;;;-0.33;100.00;100096.47;5044897;28;20054;-80
2022/02/01 06:29:29;;;;;;;47.45;43.58;;;;;;;-0.03;100.00;100103.03;5047569;28;20481;-79
2022/02/01 06:31:56;;;;;;;49.28;44.88;;;;;;;0.00;100.00;100100.16;5044991;28;20057;-80
2022/02/01 06:34:23;;;;;;;49.67;45.47;;;;;;;0.12;100.00;100108.53;5043282;28;20041;-81
2022/02/01 06:36:49;;;;;;;51.63;47.08;;;;;;;0.23;100.00;100122.16;5047042;28;20045;-81
2022/02/01 06:39:16;;;;;;;50.00;45.63;;;;;;;0.32;100.00;100122.22;5052610;28;20052;-81
2022/02/01 06:41:43;;;;;;;48.08;44.58;;;;;;;0.33;100.00;100134.31;5051994;28;20049;-81
2022/02/01 06:44:11;;;;;;;48.50;44.58;;;;;;;0.38;100.00;100143.31;5044876;28;20123;-81
2022/02/01 06:46:39;;;;;;;47.42;43.33;;;;;;;0.42;100.00;100144.69;5045319;28;20041;-81
2022/02/01 06:49:09;;;;;;;50.83;46.25;;;;;;;0.40;100.00;100137.97;5044226;28;20056;-80
2022/02/01 06:51:36;;;;;;;47.58;42.90;;;;;;;0.38;100.00;100142.50;5047981;28;20049;-80
2022/02/01 06:54:04;;;;;;;47.75;43.38;;;;;;;0.48;100.00;100143.22;5043096;28;20049;-80
2022/02/01 06:56:33;;;;;;;46.20;42.47;;;;;;;0.56;100.00;100148.50;5051916;28;20128;-81
2022/02/01 06:59:01;;;;;;;48.08;44.70;;;;;;;0.69;100.00;100153.28;5050702;28;20059;-80
2022/02/01 07:01:28;;;;;;;49.63;45.92;;;;;;;0.79;100.00;100145.34;5054604;28;20053;-81
2022/02/01 07:03:57;;;;;;;49.55;45.45;;;;;;;0.84;100.00;100143.88;5054780;28;20467;-81
2022/02/01 07:06:25;;;;;;;48.25;44.63;;;;;;;0.89;100.00;100143.44;5051185;28;20049;-81
2022/02/01 07:08:53;;;;;;;50.17;45.28;;;;;;;1.01;100.00;100143.97;5054977;28;20388;-79
2022/02/01 07:11:22;;;;;;;49.30;45.22;;;;;;;1.17;100.00;100144.03;5051512;28;20072;-80
2022/02/01 07:13:49;;;;;;;48.53;44.28;;;;;;;1.14;100.00;100131.25;5045510;28;20492;-79
2022/02/01 07:16:18;;;;;;;48.47;44.33;;;;;;;1.56;100.00;100139.03;5049673;28;20153;-82
2022/02/01 07:18:45;;;;;;;48.47;44.58;;;;;;;1.59;100.00;100146.56;5045129;28;20461;-81
2022/02/01 07:21:13;;;;;;;47.90;44.28;;;;;;;1.63;100.00;100133.16;5045362;28;20045;-81
2022/02/01 07:23:40;;;;;;;49.33;45.85;;;;;;;2.08;100.00;100124.81;5045900;28;20056;-81
2022/02/01 07:26:08;;;;;;;49.83;45.83;;;;;;;1.89;100.00;100136.47;5048613;28;20056;-80
2022/02/01 07:28:36;;;;;;;48.38;45.00;;;;;;;2.06;100.00;100139.91;5054237;28;20056;-81
2022/02/01 07:31:04;;;;;;;54.28;49.22;;;;;;;2.41;100.00;100149.19;5045398;28;20048;-81
2022/02/01 07:33:31;;;;;;;52.47;48.35;;;;;;;2.26;100.00;100146.41;5048120;28;20432;-81
2022/02/01 07:35:59;;;;;;;48.90;45.30;;;;;;;2.73;100.00;100144.88;5051302;28;20132;-81
2022/02/01 07:38:27;;;;;;;48.60;45.22;;;;;;;2.53;100.00;100152.28;5050418;28;20060;-81
2022/02/01 07:40:56;;;;;;;49.35;45.85;;;;;;;2.68;100.00;100168.97;5050386;28;20382;-81
2022/02/01 07:43:30;;;;;;;48.47;45.38;;;;;;;2.70;100.00;100172.25;5048891;28;20114;-81
2022/02/01 07:45:58;;;;;;;50.90;46.35;;;;;;;2.79;100.00;100172.22;5048804;28;20045;-80
2022/02/01 07:48:25;;;;;;;50.30;45.85;;;;;;;2.90;100.00;100185.78;5054233;28;20048;-81
2022/02/01 07:50:52;;;;;;;49.85;45.95;;;;;;;2.87;98.57;100180.88;5053673;28;20136;-80
2022/02/01 07:53:18;;;;;;;52.08;47.72;;;;;;;2.80;98.38;100187.78;5044511;28;20045;-81
2022/02/01 07:55:47;;;;;;;49.15;45.33;;;;;;;2.90;97.57;100188.41;5052413;28;20106;-79
2022/02/01 07:58:15;;;;;;;52.72;48.00;;;;;;;2.84;97.56;100199.56;5051748;28;20053;-81
2022/02/01 08:00:41;;;;;;;51.88;47.72;;;;;;;3.25;98.21;100215.19;5044044;28;20049;-82
2022/02/01 08:03:09;;;;;;;48.92;45.28;;;;;;;2.95;96.35;100214.94;5050061;28;20048;-81
2022/02/01 08:05:36;;;;;;;48.97;45.75;;;;;;;3.08;95.92;100208.34;5047513;28;20049;-81
2022/02/01 08:08:03;;;;;;;51.47;47.45;;;;;;;3.17;96.05;100210.78;5044391;28;20045;-79
2022/02/01 08:10:37;;;;;;;49.28;45.67;;;;;;;3.13;96.46;100212.09;5042282;28;20067;-82
2022/02/01 08:18:53;;;;;;;51.47;47.33;;;;;;;3.68;95.01;100220.88;5032637;28;20108;-80
2022/02/01 08:21:25;;;;;;;51.25;47.63;;;;;;;3.78;94.06;100215.41;5052207;28;20507;-81
2022/02/01 08:23:52;;;;;;;50.15;46.75;;;;;;;3.77;93.25;100221.66;5035915;28;20084;-80
2022/02/01 08:26:19;;;;;;;51.38;47.38;;;;;;;4.08;92.06;100216.34;5046872;28;20242;-82
2022/02/01 08:28:48;;;;;;;54.13;50.08;;;;;;;4.25;92.79;100225.75;5044674;28;20049;-81
2022/02/01 08:31:16;;;;;;;50.60;46.70;;;;;;;4.24;90.97;100224.13;5043493;28;20042;-81
2022/02/01 08:33:43;;;;;;;49.83;46.13;;;;;;;4.02;89.32;100232.81;5045177;28;20136;-80
2022/02/01 08:36:10;;;;;;;51.65;47.70;;;;;;;4.03;89.13;100243.16;5047132;28;20122;-81
2022/02/01 08:38:37;;;;;;;51.67;47.55;;;;;;;3.96;88.44;100242.22;5052094;28;20114;-80
2022/02/01 08:41:03;;;;;;;48.90;45.72;;;;;;;3.73;87.78;100233.50;5051206;28;20057;-80
2022/02/01 08:43:33;;;;;;;49.03;45.58;;;;;;;3.75;89.08;100236.75;5047568;28;20528;-81
2022/02/01 08:46:01;;;;;;;54.63;49.78;;;;;;;3.92;88.35;100211.22;5053359;28;20120;-80
2022/02/01 08:48:28;;;;;;;53.63;49.42;;;;;;;3.97;87.43;100219.41;5053102;28;20115;-81
2022/02/01 08:51:01;;;;;;;52.20;48.58;;;;;;;3.78;87.48;100237.25;5043752;28;20049;-81
2022/02/01 08:53:35;;;;;;;;;;;;;;;3.90;87.46;100224.50;5042393;28;20051;-80
2022/02/01 08:56:03;;;;;;;49.08;45.42;;;;;;;3.95;86.70;100224.00;5052840;28;20007;-80
2022/02/01 08:58:31;;;;;;;51.03;47.10;;;;;;;3.86;87.06;100228.50;5053019;28;20178;-81
2022/02/01 09:00:58;;;;;;;50.35;46.60;;;;;;;3.68;89.03;100229.56;5053178;28;20131;-81
2022/02/01 09:03:27;;;;;;;53.92;49.60;;;;;;;3.52;88.78;100216.53;5042912;28;20503;-80
2022/02/01 09:05:57;;;;;;;54.00;49.72;;;;;;;3.61;89.04;100220.75;5046262;28;20040;-81
2022/02/01 09:08:27;;;;;;;53.28;49.05;;;;;;;3.59;87.80;100209.59;5037060;28;20045;-80
2022/02/01 09:10:54;;;;;;;60.30;54.65;;;;;;;3.64;87.24;100211.72;5039656;28;20058;-80
2022/02/01 09:13:21;;;;;;;56.92;52.20;;;;;;;3.97;88.63;100208.91;5042006;28;20551;-81
2022/02/01 09:15:48;;;;;;;50.20;46.50;;;;;;;3.85;86.75;100208.47;5050381;28;20056;-81
2022/02/01 09:18:15;;;;;;;53.17;49.35;;;;;;;3.85;86.69;100201.41;5050119;28;20049;-81
2022/02/01 09:20:43;;;;;;;53.58;49.72;;;;;;;3.96;87.80;100204.59;5049684;28;20113;-81
2022/02/01 09:23:09;;;;;;;50.70;47.30;;;;;;;4.06;88.46;100206.03;5049698;28;20473;-80
2022/02/01 09:25:36;;;;;;;48.35;45.20;;;;;;;3.95;89.00;100200.34;5048143;28;20041;-81
2022/02/01 09:28:04;;;;;;;51.30;47.72;;;;;;;3.90;87.56;100212.22;5049914;28;20075;-81
2022/02/01 09:30:33;;;;;;;53.13;48.85;;;;;;;3.83;87.55;100213.88;5044992;28;20045;-81
2022/02/01 09:33:01;;;;;;;48.97;45.85;;;;;;;4.06;86.51;100218.34;5048640;28;20214;-81
2022/02/01 09:35:28;;;;;;;56.90;52.65;;;;;;;4.17;87.05;100220.53;5050769;28;20049;-80
2022/02/01 09:37:56;;;;;;;57.50;52.88;;;;;;;4.16;85.37;100226.81;5053004;28;20567;-81
2022/02/01 09:40:23;;;;;;;54.53;49.88;;;;;;;4.29;86.71;100216.50;5053351;28;20049;-82
2022/02/01 09:42:50;;;;;;;53.67;49.70;;;;;;;4.41;86.56;100219.53;5049970;28;20134;-81
2022/02/01 09:45:16;;;;;;;57.00;52.85;;;;;;;4.27;82.46;100215.88;5053385;28;20049;-80
2022/02/01 09:47:46;;;;;;;53.20;49.38;;;;;;;4.48;81.92;100219.63;5046761;28;20127;-83
2022/02/01 09:50:15;;;;;;;51.75;47.95;;;;;;;4.72;82.59;100219.44;5051704;28;20057;-82
2022/02/01 09:52:41;;;;;;;56.65;52.13;;;;;;;4.76;82.35;100214.63;5051970;28;20120;-80
2022/02/01 09:55:13;;;;;;;55.47;51.28;;;;;;;4.83;80.50;100218.97;5055657;28;20087;-81
2022/02/01 09:57:43;;;;;;;52.55;48.50;;;;;;;5.25;81.71;100214.88;5055431;28;20049;-81
2022/02/01 10:00:15;;;;;;;54.67;49.92;;;;;;;5.10;79.08;100213.25;5054831;28;20057;-81
2022/02/01 10:02:45;;;;;;;54.28;49.80;;;;;;;5.30;79.09;100218.81;5045174;28;20071;-79
2022/02/01 10:05:14;;;;;;;51.03;46.40;;;;;;;5.28;78.71;100216.34;5054497;28;20049;-81
2022/02/01 10:07:49;;;;;;;51.30;47.58;;;;;;;5.14;78.31;100217.97;5050229;28;20056;-81
2022/02/01 10:10:18;;;;;;;52.35;48.72;;;;;;;5.20;78.06;100216.44;5044431;28;20183;-81
2022/02/01 10:12:55;;;;;;;50.47;46.25;;;;;;;5.07;77.57;100214.44;5047682;28;20154;-79
2022/02/01 10:15:26;;;;;;;52.28;47.95;;;;;;;5.10;77.42;100215.91;5051215;28;20229;-82
2022/02/01 10:18:00;;;;;;;53.08;48.80;;;;;;;5.05;77.97;100211.16;5047640;28;20063;-84
2022/02/01 10:20:38;;;;;;;50.78;47.25;;;;;;;5.15;77.85;100211.72;5049423;28;20086;-80
2022/02/01 10:23:20;;;;;;;51.53;48.25;;;;;;;5.36;77.78;100210.97;5040356;28;20048;-81
2022/02/01 10:26:04;;;;;;;52.65;49.28;;;;;;;5.14;76.61;100210.06;5046644;28;20060;-80
2022/02/01 10:28:46;;;;;;;52.33;48.60;;;;;;;5.10;76.43;100206.19;5047700;28;20432;-80
2022/02/01 10:31:15;;;;;;;57.55;50.05;;;;;;;5.28;76.18;100197.91;5044769;28;20075;-82
2022/02/01 10:36:36;;;;;;;54.33;50.22;;;;;;;5.32;75.53;100196.53;5043574;28;20071;-82
2022/02/01 10:39:04;;;;;;;50.55;47.10;;;;;;;5.48;76.10;100198.16;5048615;28;20049;-82
2022/02/01 10:41:32;;;;;;;55.60;51.80;;;;;;;5.59;75.76;100192.38;5041228;28;20107;-82
2022/02/01 10:43:59;;;;;;;56.13;51.83;;;;;;;5.63;75.45;100198.94;5046466;28;20053;-82
2022/02/01 10:46:26;;;;;;;53.10;49.45;;;;;;;5.75;73.92;100209.81;5055403;28;20048;-81
2022/02/01 10:48:54;;;;;;;57.45;53.25;;;;;;;5.66;72.75;100203.81;5044213;28;20050;-81
2022/02/01 10:51:23;;;;;;;54.47;50.50;;;;;;;5.67;73.31;100197.53;5049241;28;20044;-82
2022/02/01 10:53:51;;;;;;;51.50;47.58;;;;;;;5.80;73.94;100196.84;5041811;28;20049;-81
2022/02/01 10:56:20;;;;;;;55.75;51.75;;;;;;;5.62;74.56;100199.91;5049505;28;20044;-81
2022/02/01 10:58:50;;;;;;;54.13;50.55;;;;;;;5.66;75.94;100201.19;5053734;28;20052;-80
2022/02/01 11:01:17;;;;;;;54.17;50.10;;;;;;;5.71;73.79;100214.59;5053544;28;20529;-83
2022/02/01 11:03:46;;;;;;;58.70;53.50;;;;;;;5.97;74.66;100216.75;5052496;28;20049;-80
2022/02/01 11:06:14;;;;;;;58.15;53.58;;;;;;;5.93;75.87;100206.75;5050714;28;20114;-81
2022/02/01 11:08:45;;;;;;;56.83;52.53;;;;;;;5.79;75.71;100200.50;5047797;28;20049;-81
2022/02/01 11:11:17;;;;;;;52.97;48.70;;;;;;;5.82;76.78;100200.13;5050580;28;20143;-82
2022/02/01 11:13:46;;;;;;;54.38;50.55;;;;;;;5.76;77.83;100197.44;5054840;28;20439;-81
2022/02/01 11:16:19;;;;;;;52.38;48.40;;;;;;;5.78;78.02;100184.88;5054985;28;20468;-81
2022/02/01 11:18:57;;;;;;;49.90;46.28;;;;;;;5.48;78.18;100180.53;5048317;28;20143;-82
2022/02/01 11:21:25;;;;;;;51.78;47.90;;;;;;;5.40;78.46;100166.66;5054635;28;20056;-81
2022/02/01 11:23:55;;;;;;;54.08;49.90;;;;;;;5.54;78.98;100165.81;5055044;28;20049;-82
2022/02/01 11:26:29;;;;;;;50.80;47.00;;;;;;;5.51;80.63;100169.63;5050578;28;20135;-82
2022/02/01 11:31:46;;;;;;;52.22;48.35;;;;;;;5.47;81.91;100165.69;5047267;28;20142;-82
2022/02/01 11:34:25;;;;;;;55.78;51.47;;;;;;;5.32;82.68;100167.56;5050344;28;20049;-80
2022/02/01 11:36:57;;;;;;;53.85;50.03;;;;;;;5.26;82.69;100157.75;5054498;28;20049;-81
2022/02/01 11:39:24;;;;;;;56.30;51.80;;;;;;;5.08;83.00;100155.50;5044016;28;20541;-82
2022/02/01 11:41:53;;;;;;;52.08;47.55;;;;;;;5.00;84.37;100159.09;5045448;28;20300;-81
2022/02/01 11:44:25;;;;;;;55.40;50.63;;;;;;;5.05;84.70;100159.34;5044012;28;20450;-82
2022/02/01 11:47:09;;;;;;;56.28;51.72;;;;;;;4.94;84.50;100159.00;5054617;28;20114;-81
2022/02/01 11:49:37;;;;;;;53.25;48.85;;;;;;;5.00;85.37;100164.34;5051676;28;20057;-81
2022/02/01 11:52:13;;;;;;;53.50;48.78;;;;;;;4.93;85.57;100152.94;5041756;28;20049;-80
2022/02/01 11:54:42;;;;;;;50.70;46.63;;;;;;;5.11;86.18;100175.41;5041007;28;20045;-82
2022/02/01 11:57:17;;;;;;;52.67;48.25;;;;;;;5.04;85.05;100164.78;5052790;28;20049;-81
2022/02/01 11:59:58;;;;;;;54.70;50.05;;;;;;;5.06;85.50;100168.06;5054024;28;20048;-81
2022/02/01 12:02:35;;;;;;;53.55;49.00;;;;;;;5.20;86.40;100166.41;5041804;28;20052;-81
2022/02/01 12:05:08;;;;;;;55.97;51.45;;;;;;;5.08;86.32;100173.13;5044446;28;20088;-81
2022/02/01 12:07:54;;;;;;;54.22;49.30;;;;;;;4.89;86.28;100167.44;5045250;28;20049;-81
2022/02/01 12:10:22;;;;;;;52.67;48.42;;;;;;;4.79;86.30;100175.59;5053890;28;20106;-81
2022/02/01 12:12:48;;;;;;;57.33;52.00;;;;;;;4.94;86.62;100164.25;5054064;28;20110;-81
2022/02/01 12:15:15;;;;;;;52.90;48.85;;;;;;;4.93;86.69;100171.34;5052580;28;20128;-83
2022/02/01 12:17:50;;;;;;;53.15;49.08;;;;;;;4.94;87.97;100172.16;5041571;28;20049;-80
2022/02/01 12:20:18;;;;;;;54.40;49.80;;;;;;;4.93;86.78;100184.50;5053938;28;20124;-81
2022/02/01 12:23:17;;;;;;;54.75;49.97;;;;;;;4.95;87.23;100181.69;5045195;28;20085;-80
2022/02/01 12:25:44;;;;;;;55.15;50.35;;;;;;;4.90;87.70;100194.56;5048601;28;20440;-81
2022/02/01 12:28:16;;;;;;;57.03;51.95;;;;;;;4.87;86.92;100184.41;5050647;28;20122;-81
2022/02/01 12:30:43;;;;;;;54.50;49.72;;;;;;;4.94;86.81;100180.06;5049032;28;20126;-81
2022/02/01 12:33:18;;;;;;;53.65;49.10;;;;;;;4.79;86.29;100182.69;5049217;28;20103;-80
2022/02/01 12:35:46;;;;;;;54.00;49.47;;;;;;;4.78;86.12;100187.13;5053468;28;20060;-81
2022/02/01 12:38:20;;;;;;;53.45;48.80;;;;;;;4.96;87.09;100191.19;5042655;28;20110;-81